Time;durP1;ratioP1;P1;durP2;ratioP2;P2;SDS_P1;SDS_P2;PMS_P1;PMS_P2;Temp;Humidity;BMP_temperature;BMP_pressure;BME280_temperature;BME280_humidity;BME280_pressure;Samples;Min_cycle;Max_cycle;Signal;HPM_P1;HPM_P2
2022/07/22 00:00:05;;;;;;;19.17;13.55;;;;;;;19.78;79.59;96646.22;5013604;28;20120;-75
2022/07/22 00:02:32;;;;;;;15.70;13.50;;;;;;;19.79;79.64;96648.66;5013786;28;20052;-75
2022/07/22 00:04:58;;;;;;;15.73;14.02;;;;;;;19.81;79.13;96648.25;5013330;28;20049;-75
2022/07/22 00:07:26;;;;;;;16.02;13.20;;;;;;;19.83;79.28;96631.31;5013213;28;20051;-74
2022/07/22 00:09:53;;;;;;;16.92;13.70;;;;;;;19.83;79.02;96636.84;5013073;28;20046;-75
2022/07/22 00:12:19;;;;;;;18.98;15.00;;;;;;;19.70;79.01;96633.50;5012959;28;20057;-75
2022/07/22 00:14:46;;;;;;;16.95;14.65;;;;;;;19.69;78.95;96631.91;5013356;28;20046;-75
2022/07/22 00:17:12;;;;;;;17.42;14.10;;;;;;;19.61;79.02;96630.19;5012485;28;20414;-74
2022/07/22 00:19:39;;;;;;;15.63;13.25;;;;;;;19.68;78.96;96628.34;5013339;28;20053;-75
2022/07/22 00:22:05;;;;;;;16.60;14.25;;;;;;;19.66;78.73;96638.94;5012668;28;20065;-74
2022/07/22 00:24:33;;;;;;;17.92;14.38;;;;;;;19.63;78.82;96627.84;5013075;28;20050;-75
2022/07/22 00:27:00;;;;;;;16.05;13.75;;;;;;;19.61;78.90;96630.97;5014808;28;20046;-75
2022/07/22 00:29:27;;;;;;;16.92;14.55;;;;;;;19.55;78.81;96633.22;5032478;28;20045;-74
2022/07/22 00:31:53;;;;;;;17.58;15.07;;;;;;;19.48;79.00;96627.59;5033080;28;20508;-75
2022/07/22 00:34:20;;;;;;;17.77;14.43;;;;;;;19.35;79.38;96625.38;5032738;28;20425;-74
2022/07/22 00:36:46;;;;;;;17.20;14.70;;;;;;;19.21;79.98;96618.44;5033155;28;20045;-75
2022/07/22 00:39:13;;;;;;;16.25;14.02;;;;;;;19.22;80.04;96619.25;5032541;28;20049;-75
2022/07/22 00:41:41;;;;;;;17.13;13.75;;;;;;;19.24;80.05;96627.94;5033044;28;20650;-75
2022/07/22 00:44:09;;;;;;;15.63;13.40;;;;;;;19.24;80.19;96627.94;5032465;28;20056;-74
2022/07/22 00:46:37;;;;;;;19.52;14.27;;;;;;;19.18;80.40;96623.91;5032818;28;20050;-75
2022/07/22 00:49:05;;;;;;;15.77;13.90;;;;;;;19.12;80.59;96619.84;5032295;28;20049;-75
2022/07/22 00:51:32;;;;;;;17.02;13.68;;;;;;;19.14;80.94;96628.56;5032864;28;20041;-74
2022/07/22 00:54:00;;;;;;;16.67;13.75;;;;;;;19.15;80.82;96624.63;5032560;28;20048;-74
2022/07/22 00:56:28;;;;;;;16.98;13.88;;;;;;;19.12;80.67;96619.84;5026589;28;20045;-75
2022/07/22 00:58:58;;;;;;;16.33;14.10;;;;;;;19.04;81.12;96618.91;5032821;28;20037;-75
2022/07/22 01:01:25;;;;;;;18.65;13.80;;;;;;;19.02;81.33;96616.53;5032195;28;20052;-74
2022/07/22 01:03:51;;;;;;;17.02;14.77;;;;;;;19.04;80.90;96616.94;5032373;28;20041;-75
2022/07/22 01:06:18;;;;;;;16.73;14.52;;;;;;;18.92;81.05;96611.59;5031222;28;20052;-74
2022/07/22 01:08:45;;;;;;;17.77;14.85;;;;;;;18.89;81.38;96608.78;5032384;28;20493;-74
2022/07/22 01:11:13;;;;;;;14.98;13.20;;;;;;;18.87;81.51;96617.41;5031879;28;20465;-74
2022/07/22 01:13:40;;;;;;;17.38;14.38;;;;;;;18.88;81.34;96609.94;5032255;28;20049;-75
2022/07/22 01:16:09;;;;;;;15.63;13.63;;;;;;;18.86;81.64;96613.06;5031746;28;20068;-75
2022/07/22 01:18:37;;;;;;;18.13;14.07;;;;;;;18.90;81.76;96608.44;5032401;28;20041;-75
2022/07/22 01:21:06;;;;;;;16.55;13.82;;;;;;;18.91;81.54;96610.00;5031730;28;20056;-75
2022/07/22 01:23:33;;;;;;;20.80;14.52;;;;;;;18.91;81.44;96610.00;5031880;28;20049;-74
2022/07/22 01:26:00;;;;;;;15.82;12.32;;;;;;;18.86;81.44;96620.56;5031433;28;20512;-75
2022/07/22 01:28:27;;;;;;;14.45;12.35;;;;;;;18.87;81.79;96608.34;5031939;28;20049;-75
2022/07/22 01:30:53;;;;;;;16.20;13.73;;;;;;;18.85;81.31;96608.72;5031624;28;20053;-75
2022/07/22 01:33:21;;;;;;;15.70;13.20;;;;;;;18.81;81.03;96605.09;5031746;28;20053;-74
2022/07/22 01:35:48;;;;;;;15.05;13.13;;;;;;;18.76;81.57;96605.38;5031687;28;20045;-74
2022/07/22 01:38:16;;;;;;;18.15;14.00;;;;;;;18.76;81.37;96610.91;5031122;28;20045;-75
2022/07/22 01:40:44;;;;;;;16.98;13.27;;;;;;;18.70;81.54;96610.41;5032109;28;20052;-76
2022/07/22 01:43:11;;;;;;;17.85;13.23;;;;;;;18.70;81.83;96604.09;5031410;28;20060;-74
2022/07/22 01:45:38;;;;;;;14.13;12.63;;;;;;;18.67;81.70;96599.25;5030435;28;20041;-75
2022/07/22 01:48:05;;;;;;;18.58;14.13;;;;;;;18.65;81.85;96596.09;5030730;28;20053;-74
2022/07/22 01:50:31;;;;;;;17.08;14.02;;;;;;;18.63;82.09;96595.63;5030194;28;20049;-74
2022/07/22 01:52:58;;;;;;;16.38;13.75;;;;;;;18.64;81.79;96600.81;5031004;28;20120;-75
2022/07/22 01:55:26;;;;;;;18.00;13.38;;;;;;;18.58;81.87;96605.00;5027483;28;20038;-75
2022/07/22 01:57:52;;;;;;;16.95;13.25;;;;;;;18.47;81.67;96606.75;5011883;28;20034;-75
2022/07/22 02:00:20;;;;;;;17.48;14.32;;;;;;;18.39;81.26;96607.78;5011205;28;20068;-75
2022/07/22 02:02:47;;;;;;;15.10;12.95;;;;;;;18.26;81.22;96607.09;5000828;28;20038;-75
2022/07/22 02:05:13;;;;;;;15.32;13.05;;;;;;;18.25;81.59;96606.31;5011159;28;20046;-75
2022/07/22 02:07:40;;;;;;;15.10;13.25;;;;;;;18.24;82.00;96606.66;5011769;28;20042;-75
2022/07/22 02:10:07;;;;;;;15.88;14.13;;;;;;;18.27;82.43;96597.69;5010912;28;20413;-76
2022/07/22 02:12:35;;;;;;;15.70;12.82;;;;;;;18.27;82.63;96597.69;5011681;28;20046;-76
2022/07/22 02:18:25;;;;;;;16.25;13.40;;;;;;;18.29;82.73;96603.63;5011099;28;20121;-74
2022/07/22 02:20:51;;;;;;;19.30;13.98;;;;;;;18.29;82.77;96600.88;5008404;28;20049;-74
2022/07/22 02:23:18;;;;;;;17.85;14.20;;;;;;;18.29;82.81;96598.13;5010794;28;20100;-74
2022/07/22 02:25:45;;;;;;;19.08;13.65;;;;;;;18.26;83.26;96596.88;5011144;28;20078;-75
2022/07/22 02:28:13;;;;;;;16.13;13.57;;;;;;;18.25;83.00;96605.50;5010796;28;20041;-74
2022/07/22 02:30:39;;;;;;;16.65;13.77;;;;;;;18.20;83.03;96603.03;5010921;28;20046;-74
2022/07/22 02:33:06;;;;;;;16.25;13.38;;;;;;;18.24;82.98;96604.72;5010677;28;20054;-75
2022/07/22 02:35:33;;;;;;;17.52;12.65;;;;;;;18.24;82.87;96599.19;5011232;28;20042;-75
2022/07/22 02:38:00;;;;;;;16.23;13.32;;;;;;;18.19;82.99;96601.44;5011153;28;20050;-74
2022/07/22 02:40:26;;;;;;;16.05;12.82;;;;;;;18.17;83.29;96601.03;5010749;28;20053;-75
2022/07/22 02:42:53;;;;;;;15.80;13.02;;;;;;;18.18;83.21;96597.88;5011090;28;20057;-75
2022/07/22 02:45:21;;;;;;;16.25;13.43;;;;;;;18.19;83.16;96591.22;5010585;28;20128;-74
2022/07/22 02:47:49;;;;;;;16.98;12.65;;;;;;;18.18;83.18;96605.38;5011084;28;20054;-74
2022/07/22 02:50:15;;;;;;;17.67;13.95;;;;;;;18.15;83.21;96600.56;5012240;28;20046;-74
2022/07/22 02:52:42;;;;;;;15.50;12.60;;;;;;;18.18;83.53;96597.09;5010858;28;20046;-74
2022/07/22 02:55:09;;;;;;;16.25;13.13;;;;;;;18.19;83.35;96606.94;5010318;28;20569;-74
2022/07/22 02:57:36;;;;;;;18.00;13.05;;;;;;;18.21;83.38;96599.13;5010851;28;20038;-75
2022/07/22 03:00:04;;;;;;;17.55;14.27;;;;;;;18.19;82.97;96606.94;5010609;28;20046;-75
2022/07/22 03:02:32;;;;;;;16.60;13.52;;;;;;;18.18;82.84;96610.88;5010751;28;20045;-75
2022/07/22 03:04:58;;;;;;;17.52;13.77;;;;;;;18.12;82.69;96613.13;5010441;28;20065;-74
2022/07/22 03:07:25;;;;;;;18.92;13.52;;;;;;;18.06;82.97;96608.22;5010062;28;20049;-74
2022/07/22 03:09:52;;;;;;;19.33;14.70;;;;;;;17.93;83.51;96605.59;5010188;28;20045;-75
2022/07/22 03:12:18;;;;;;;17.65;13.57;;;;;;;17.92;83.72;96605.97;5010016;28;20046;-75
2022/07/22 03:14:45;;;;;;;15.45;12.93;;;;;;;17.96;83.55;96604.09;5010464;28;20487;-74
2022/07/22 03:17:11;;;;;;;20.45;15.88;;;;;;;17.84;84.05;96607.75;5009790;28;20057;-74
2022/07/22 03:19:39;;;;;;;16.80;14.32;;;;;;;17.92;84.20;96609.53;5012191;28;20493;-75
2022/07/22 03:22:06;;;;;;;16.13;13.80;;;;;;;18.00;83.85;96605.75;5009787;28;20078;-75
2022/07/22 03:24:32;;;;;;;18.77;13.52;;;;;;;18.00;83.43;96615.97;5010349;28;20513;-75
2022/07/22 03:26:59;;;;;;;18.85;14.50;;;;;;;18.00;83.52;96614.03;5010259;28;20050;-75
2022/07/22 03:29:25;;;;;;;15.55;13.73;;;;;;;18.00;83.54;96604.97;5009366;28;20129;-74
2022/07/22 03:31:52;;;;;;;17.42;14.20;;;;;;;17.96;83.46;96602.16;5010214;28;20041;-75
2022/07/22 03:34:19;;;;;;;17.65;13.95;;;;;;;17.93;83.07;96613.06;5009881;28;20046;-75
2022/07/22 03:36:46;;;;;;;17.02;14.45;;;;;;;17.90;83.27;96609.06;5010214;28;20046;-74
2022/07/22 03:39:13;;;;;;;18.60;13.05;;;;;;;17.86;82.65;96604.66;5009678;28;20042;-74
2022/07/22 03:41:39;;;;;;;17.85;13.02;;;;;;;17.79;82.12;96605.28;5010187;28;20046;-74
2022/07/22 03:44:06;;;;;;;16.40;12.82;;;;;;;17.70;81.41;96602.72;5009776;28;20497;-75
2022/07/22 03:46:33;;;;;;;15.85;12.40;;;;;;;17.68;81.66;96604.19;5010455;28;20054;-74
2022/07/22 03:48:59;;;;;;;17.60;13.68;;;;;;;17.65;81.81;96610.44;5010694;28;20049;-73
2022/07/22 03:51:26;;;;;;;18.60;14.98;;;;;;;17.64;83.04;96609.63;5010786;28;20512;-74
2022/07/22 03:53:54;;;;;;;20.17;14.68;;;;;;;17.70;83.68;96604.66;5010234;28;20045;-73
2022/07/22 03:56:20;;;;;;;16.70;14.73;;;;;;;17.72;84.07;96605.09;5009550;28;20070;-74
2022/07/22 03:58:47;;;;;;;17.45;14.18;;;;;;;17.70;84.67;96607.41;5010220;28;20042;-74
2022/07/22 04:01:13;;;;;;;19.27;15.98;;;;;;;17.71;84.71;96609.00;5009467;28;20552;-74
2022/07/22 04:03:40;;;;;;;19.45;16.13;;;;;;;17.72;84.54;96611.44;5010218;28;20060;-74
2022/07/22 04:06:07;;;;;;;19.13;14.25;;;;;;;17.79;84.42;96610.78;5009723;28;20201;-74
2022/07/22 04:08:34;;;;;;;16.70;14.00;;;;;;;17.82;84.47;96612.84;5010064;28;20042;-73
2022/07/22 04:11:02;;;;;;;19.48;15.60;;;;;;;17.81;84.68;96611.25;5009940;28;20057;-75
2022/07/22 04:13:28;;;;;;;18.67;15.27;;;;;;;17.83;84.62;96605.38;5009799;28;20045;-74
2022/07/22 04:15:55;;;;;;;15.35;13.10;;;;;;;17.86;84.47;96610.97;5009971;28;20049;-75
2022/07/22 04:18:21;;;;;;;22.20;17.23;;;;;;;17.79;84.56;96605.28;5009730;28;20054;-74
2022/07/22 04:20:48;;;;;;;21.33;16.20;;;;;;;17.78;84.72;96603.69;5010708;28;20037;-74
2022/07/22 04:23:14;;;;;;;19.15;15.18;;;;;;;17.78;85.00;96606.44;5009217;28;20065;-74
2022/07/22 04:25:41;;;;;;;18.88;15.18;;;;;;;17.81;84.96;96597.47;5009869;28;20042;-74
2022/07/22 04:28:09;;;;;;;18.67;15.00;;;;;;;17.87;84.79;96601.53;5009509;28;20170;-74
2022/07/22 04:30:36;;;;;;;18.65;15.80;;;;;;;17.91;84.77;96607.94;5009822;28;20050;-74
2022/07/22 04:33:02;;;;;;;19.05;15.90;;;;;;;17.96;84.16;96602.16;5009370;28;20046;-75
2022/07/22 04:35:30;;;;;;;18.90;15.63;;;;;;;17.99;84.06;96604.16;5009792;28;20214;-73
2022/07/22 04:37:56;;;;;;;17.40;14.35;;;;;;;18.02;83.59;96612.88;5009766;28;20108;-74
2022/07/22 04:40:23;;;;;;;18.98;14.95;;;;;;;18.00;83.14;96605.75;5012155;28;20050;-74
2022/07/22 04:42:50;;;;;;;19.17;16.15;;;;;;;17.94;83.50;96600.88;5013531;28;20045;-74
2022/07/22 04:45:18;;;;;;;17.83;14.77;;;;;;;17.99;83.49;96598.66;5012923;28;20056;-74
2022/07/22 04:47:44;;;;;;;21.73;15.35;;;;;;;17.97;83.75;96595.47;5013395;28;20416;-74
2022/07/22 04:50:11;;;;;;;21.55;16.38;;;;;;;17.91;83.99;96596.91;5013728;28;20416;-74
2022/07/22 04:52:38;;;;;;;22.63;17.98;;;;;;;17.92;84.34;96601.25;5013358;28;20045;-74
2022/07/22 04:55:05;;;;;;;25.05;16.35;;;;;;;17.97;84.71;96598.22;5012719;28;20445;-75
2022/07/22 04:57:32;;;;;;;21.73;17.52;;;;;;;17.95;84.72;96603.28;5013280;28;20088;-73
2022/07/22 04:59:58;;;;;;;21.23;16.77;;;;;;;17.94;85.21;96600.88;5012966;28;20058;-73
2022/07/22 05:02:26;;;;;;;22.88;16.65;;;;;;;18.08;84.45;96605.94;5012694;28;20041;-74
2022/07/22 05:04:52;;;;;;;22.05;16.42;;;;;;;18.07;84.16;96605.13;5013127;28;20052;-74
2022/07/22 05:07:19;;;;;;;20.95;16.70;;;;;;;18.10;84.28;96604.41;5011927;28;20612;-74
2022/07/22 05:09:46;;;;;;;21.88;17.40;;;;;;;18.06;84.54;96602.72;5012720;28;20053;-74
2022/07/22 05:12:12;;;;;;;21.08;15.25;;;;;;;18.21;84.25;96607.38;5012472;28;20057;-78
2022/07/22 05:14:39;;;;;;;19.67;16.17;;;;;;;18.31;84.29;96601.28;5012821;28;20042;-78
2022/07/22 05:17:10;;;;;;;20.35;16.40;;;;;;;18.37;83.79;96605.34;5012326;28;20054;-79
2022/07/22 05:19:39;;;;;;;22.30;16.25;;;;;;;18.45;83.81;96595.28;5013413;28;20069;-78
2022/07/22 05:22:06;;;;;;;20.88;17.10;;;;;;;18.45;83.78;96606.31;5010113;28;20141;-74
2022/07/22 05:24:33;;;;;;;23.67;16.95;;;;;;;18.46;83.65;96605.94;5011427;28;20520;-73
2022/07/22 05:27:00;;;;;;;23.75;17.65;;;;;;;18.48;83.21;96603.66;5012585;28;20046;-74
2022/07/22 05:29:26;;;;;;;20.38;16.83;;;;;;;18.42;83.55;96599.56;5012295;28;20042;-74
2022/07/22 05:31:52;;;;;;;22.88;17.17;;;;;;;18.41;84.24;96599.94;5012191;28;20048;-73
2022/07/22 05:34:19;;;;;;;20.15;17.25;;;;;;;18.58;83.69;96601.44;5011640;28;20042;-74
2022/07/22 05:36:47;;;;;;;21.83;16.98;;;;;;;18.69;83.05;96603.28;5011324;28;20046;-74
2022/07/22 05:39:13;;;;;;;24.48;16.55;;;;;;;18.79;81.97;96607.41;5011009;28;20049;-74
2022/07/22 05:41:40;;;;;;;19.92;16.15;;;;;;;18.83;81.41;96601.97;5012091;28;20038;-74
2022/07/22 05:44:06;;;;;;;20.42;14.80;;;;;;;18.89;81.63;96603.25;5011297;28;20050;-75
2022/07/22 05:46:33;;;;;;;24.00;17.42;;;;;;;18.85;82.16;96599.66;5012042;28;20045;-74
2022/07/22 05:48:59;;;;;;;17.42;14.50;;;;;;;19.01;81.94;96603.91;5012461;28;20050;-74
2022/07/22 05:51:26;;;;;;;18.77;15.07;;;;;;;19.13;81.89;96604.88;5011474;28;20674;-74
2022/07/22 05:53:54;;;;;;;22.35;15.98;;;;;;;19.18;81.92;96607.34;5011928;28;20053;-75
2022/07/22 05:56:20;;;;;;;18.27;15.32;;;;;;;19.21;81.34;96601.88;5011403;28;20064;-74
2022/07/22 05:58:47;;;;;;;19.92;14.80;;;;;;;19.32;80.79;96602.06;5012043;28;20046;-73
2022/07/22 06:01:13;;;;;;;20.05;15.70;;;;;;;19.41;80.83;96599.03;5011282;28;20056;-75
2022/07/22 06:03:40;;;;;;;22.10;16.23;;;;;;;19.09;79.89;96601.25;5012048;28;20449;-74
2022/07/22 06:06:08;;;;;;;20.73;15.40;;;;;;;19.11;80.29;96594.22;5011178;28;20049;-75
2022/07/22 06:08:34;;;;;;;22.10;16.90;;;;;;;19.10;79.95;96597.31;5011848;28;20133;-74
2022/07/22 06:11:02;;;;;;;22.38;16.17;;;;;;;19.16;80.64;96596.66;5011554;28;20054;-74
2022/07/22 06:13:29;;;;;;;21.90;16.75;;;;;;;19.18;80.37;96596.28;5011332;28;20070;-75
2022/07/22 06:15:55;;;;;;;20.88;15.68;;;;;;;19.30;80.41;96593.34;5011686;28;20053;-74
2022/07/22 06:18:22;;;;;;;21.13;14.55;;;;;;;19.42;78.66;96597.88;5010088;28;20062;-74
2022/07/22 06:20:48;;;;;;;20.73;15.48;;;;;;;19.59;78.40;96599.34;5011359;28;20053;-74
2022/07/22 06:23:15;;;;;;;23.30;15.88;;;;;;;19.58;80.12;96603.28;5010678;28;20049;-75
2022/07/22 06:25:42;;;;;;;23.83;15.25;;;;;;;19.59;79.92;96604.88;5011321;28;20041;-74
2022/07/22 06:28:09;;;;;;;20.55;15.23;;;;;;;19.65;78.75;96590.41;5010753;28;20050;-74
2022/07/22 06:30:36;;;;;;;16.52;14.60;;;;;;;19.72;78.18;96600.75;5011465;28;20038;-75
2022/07/22 06:33:03;;;;;;;16.65;13.73;;;;;;;19.95;77.98;96598.75;5010801;28;20116;-75
2022/07/22 06:35:30;;;;;;;22.20;14.98;;;;;;;20.08;77.85;96597.34;5011105;28;20456;-75
2022/07/22 06:37:56;;;;;;;18.63;13.77;;;;;;;20.26;77.72;96594.81;5011191;28;20050;-74
2022/07/22 06:40:23;;;;;;;16.42;14.60;;;;;;;20.39;76.10;96598.13;5010830;28;20057;-74
2022/07/22 06:42:49;;;;;;;21.75;14.25;;;;;;;20.48;75.83;96590.38;5011155;28;20049;-74
2022/07/22 06:45:17;;;;;;;20.23;15.15;;;;;;;20.26;76.36;96597.59;5010513;28;20045;-75
2022/07/22 06:47:44;;;;;;;16.63;13.32;;;;;;;20.49;76.74;96594.75;5010914;28;20081;-74
2022/07/22 06:50:11;;;;;;;19.70;14.27;;;;;;;20.54;77.31;96599.94;5010409;28;20050;-75
2022/07/22 06:52:39;;;;;;;17.00;13.40;;;;;;;20.74;75.58;96591.47;5010790;28;20516;-75
2022/07/22 06:55:07;;;;;;;14.57;11.98;;;;;;;20.85;74.31;96603.47;5010469;28;20070;-75
2022/07/22 06:57:34;;;;;;;18.52;12.90;;;;;;;21.02;75.18;96605.63;5010765;28;20046;-74
2022/07/22 07:00:00;;;;;;;15.10;12.45;;;;;;;21.22;74.56;96597.09;5010697;28;20430;-74
2022/07/22 07:02:28;;;;;;;13.75;11.10;;;;;;;21.33;73.64;96601.59;5009652;28;20073;-74
2022/07/22 07:04:54;;;;;;;17.88;13.27;;;;;;;21.33;71.01;96598.03;5010535;28;20574;-74
2022/07/22 07:07:21;;;;;;;15.88;12.65;;;;;;;21.39;70.95;96599.25;5010011;28;20046;-75
2022/07/22 07:09:47;;;;;;;16.90;12.48;;;;;;;21.32;68.65;96593.66;5010347;28;20038;-74
2022/07/22 07:12:14;;;;;;;17.15;12.73;;;;;;;21.30;68.54;96591.28;5010014;28;20060;-75
2022/07/22 07:14:40;;;;;;;15.30;11.23;;;;;;;21.48;68.91;96580.34;5010485;28;20076;-74
2022/07/22 07:17:06;;;;;;;17.27;12.02;;;;;;;21.51;67.98;96596.22;5010160;28;20073;-74
2022/07/22 07:19:34;;;;;;;18.02;11.63;;;;;;;21.67;68.01;96592.38;5010947;28;20049;-74
2022/07/22 07:22:01;;;;;;;13.02;10.52;;;;;;;21.91;68.08;96588.97;5010121;28;20058;-74
2022/07/22 07:24:27;;;;;;;13.43;10.95;;;;;;;22.01;67.90;96588.25;5010051;28;20049;-75
2022/07/22 07:26:54;;;;;;;15.38;10.93;;;;;;;21.99;67.09;96581.50;5010038;28;20057;-74
2022/07/22 07:29:22;;;;;;;13.07;10.27;;;;;;;22.18;66.85;96577.66;5009786;28;20050;-74
2022/07/22 07:31:49;;;;;;;14.43;10.32;;;;;;;22.38;66.56;96578.97;5010276;28;20049;-75
2022/07/22 07:34:15;;;;;;;13.15;10.35;;;;;;;22.57;66.71;96584.19;5009638;28;20501;-75
2022/07/22 07:36:43;;;;;;;15.32;10.57;;;;;;;22.70;66.07;96587.41;5010316;28;20050;-74
2022/07/22 07:39:09;;;;;;;13.52;9.55;;;;;;;22.80;65.12;96588.63;5009706;28;20050;-75
2022/07/22 07:41:36;;;;;;;12.48;9.77;;;;;;;22.80;62.79;96586.66;5010308;28;20037;-75
2022/07/22 07:44:03;;;;;;;13.73;9.85;;;;;;;22.86;62.76;96587.06;5009619;28;20052;-75
2022/07/22 07:46:29;;;;;;;13.98;10.25;;;;;;;22.99;62.78;96588.31;5010050;28;20053;-74
2022/07/22 07:48:56;;;;;;;10.95;8.18;;;;;;;23.20;60.07;96586.78;5010055;28;20042;-74
2022/07/22 07:51:22;;;;;;;11.95;9.15;;;;;;;23.22;59.13;96567.72;5009326;28;20053;-74
2022/07/22 07:53:50;;;;;;;11.10;8.73;;;;;;;23.35;59.97;96571.72;5009995;28;20058;-74
2022/07/22 07:56:17;;;;;;;14.00;9.43;;;;;;;23.44;60.01;96580.47;5009348;28;20506;-74
2022/07/22 07:58:43;;;;;;;12.25;8.88;;;;;;;23.62;60.20;96578.47;5009873;28;20042;-74
2022/07/22 08:01:10;;;;;;;10.73;7.60;;;;;;;23.79;58.58;96578.88;5009603;28;20054;-74
2022/07/22 08:03:36;;;;;;;14.25;8.25;;;;;;;23.90;56.43;96571.31;5010068;28;20133;-75
2022/07/22 08:06:03;;;;;;;10.60;8.15;;;;;;;23.88;54.41;96577.28;5009228;28;20512;-75
2022/07/22 08:08:29;;;;;;;13.30;9.02;;;;;;;24.27;56.89;96556.09;5010046;28;20053;-74
2022/07/22 08:10:57;;;;;;;9.90;8.32;;;;;;;24.93;56.50;96559.03;5009610;28;20440;-75
2022/07/22 08:13:24;;;;;;;11.70;8.23;;;;;;;25.79;53.40;96556.44;5009072;28;20393;-74
2022/07/22 08:15:50;;;;;;;10.60;7.63;;;;;;;26.33;53.79;96550.28;5013410;28;20045;-75
2022/07/22 08:18:17;;;;;;;11.65;8.13;;;;;;;26.89;52.56;96559.19;5013346;28;20054;-75
2022/07/22 08:20:43;;;;;;;11.85;8.68;;;;;;;26.97;48.86;96566.25;5013392;28;20046;-75
2022/07/22 08:23:10;;;;;;;10.32;7.57;;;;;;;27.39;48.51;96564.06;5012815;28;20050;-74
2022/07/22 08:25:37;;;;;;;9.63;7.82;;;;;;;27.58;46.59;96564.16;5013394;28;20061;-74
2022/07/22 08:28:05;;;;;;;11.25;8.38;;;;;;;27.25;47.67;96559.47;5012795;28;20045;-75
2022/07/22 08:30:31;;;;;;;9.95;8.30;;;;;;;27.25;48.28;96557.50;5013376;28;20493;-75
2022/07/22 08:32:58;;;;;;;9.20;7.93;;;;;;;27.26;47.22;96564.66;5013095;28;20045;-74
2022/07/22 08:35:25;;;;;;;11.52;8.52;;;;;;;27.10;48.15;96558.91;5012567;28;20045;-75
2022/07/22 08:37:52;;;;;;;8.88;6.97;;;;;;;27.40;48.33;96560.06;5013166;28;20052;-75
2022/07/22 08:40:18;;;;;;;8.25;7.10;;;;;;;27.54;46.63;96559.81;5012695;28;20042;-74
2022/07/22 08:42:47;;;;;;;9.82;7.40;;;;;;;27.64;47.75;96558.06;5012949;28;20489;-75
2022/07/22 08:45:15;;;;;;;8.52;7.38;;;;;;;27.64;44.29;96563.66;5012406;28;20053;-78
2022/07/22 08:47:45;;;;;;;9.57;6.97;;;;;;;27.54;45.52;96548.63;5012116;28;20049;-79
2022/07/22 08:50:11;;;;;;;9.57;7.57;;;;;;;27.76;46.46;96549.88;5012432;28;20057;-75
2022/07/22 08:52:38;;;;;;;11.18;6.80;;;;;;;27.83;44.31;96555.38;5012681;28;20041;-79
2022/07/22 08:55:06;;;;;;;9.23;6.35;;;;;;;27.95;44.16;96550.38;5012659;28;20632;-76
2022/07/22 08:57:32;;;;;;;8.27;6.70;;;;;;;28.14;45.25;96546.00;5012306;28;20061;-76
2022/07/22 09:00:01;;;;;;;8.30;7.22;;;;;;;28.25;44.16;96553.00;5012621;28;20042;-76
2022/07/22 09:02:37;;;;;;;8.18;6.57;;;;;;;28.32;43.26;96546.47;5012337;28;20056;-75
2022/07/22 09:05:06;;;;;;;8.45;6.68;;;;;;;28.46;43.22;96545.41;5012718;28;20052;-80
2022/07/22 09:07:34;;;;;;;8.90;7.13;;;;;;;28.36;43.35;96541.63;5012674;28;20038;-80
2022/07/22 09:10:03;;;;;;;9.05;6.80;;;;;;;28.66;42.83;96532.19;5012679;28;20077;-77
2022/07/22 09:12:31;;;;;;;7.57;6.78;;;;;;;28.74;42.39;96530.81;5012511;28;20049;-78
2022/07/22 09:15:00;;;;;;;9.82;6.95;;;;;;;28.76;41.72;96531.16;5012361;28;20058;-80
2022/07/22 09:17:31;;;;;;;10.18;6.28;;;;;;;28.83;41.30;96524.63;5012690;28;20398;-78
2022/07/22 09:19:59;;;;;;;9.10;7.28;;;;;;;28.91;42.72;96530.84;5012193;28;20050;-78
2022/07/22 09:22:38;;;;;;;10.88;6.82;;;;;;;29.06;41.88;96527.31;5011528;28;20041;-76
2022/07/22 09:25:22;;;;;;;8.43;6.50;;;;;;;29.12;42.07;96530.38;5011818;28;20046;-77
2022/07/22 09:27:48;;;;;;;8.15;6.10;;;;;;;29.29;41.96;96517.97;5012022;28;20041;-80
2022/07/22 09:30:18;;;;;;;9.70;6.82;;;;;;;29.38;40.93;96514.53;5011438;28;20042;-81
2022/07/22 09:32:46;;;;;;;9.57;7.38;;;;;;;28.65;41.03;96513.78;5012196;28;20049;-80
2022/07/22 09:35:13;;;;;;;10.82;7.25;;;;;;;28.48;42.46;96515.75;5011450;28;20123;-78
2022/07/22 09:37:49;;;;;;;9.52;6.75;;;;;;;28.72;42.67;96510.06;5011803;28;20117;-78
2022/07/22 09:40:16;;;;;;;7.80;6.82;;;;;;;29.01;42.92;96510.22;5011484;28;20042;-75
2022/07/22 09:42:48;;;;;;;8.45;6.60;;;;;;;29.21;41.36;96513.75;5011691;28;20042;-76
2022/07/22 09:45:15;;;;;;;9.20;6.47;;;;;;;29.43;40.88;96511.22;5011577;28;20609;-79
2022/07/22 09:47:43;;;;;;;9.88;6.55;;;;;;;29.43;41.40;96502.78;5011851;28;20069;-80
2022/07/22 09:50:20;;;;;;;9.65;6.50;;;;;;;29.22;38.19;96498.50;5010780;28;20646;-79
2022/07/22 09:52:48;;;;;;;8.90;6.45;;;;;;;29.35;41.31;96499.38;5011520;28;20049;-80
2022/07/22 09:55:16;;;;;;;8.23;6.57;;;;;;;29.44;40.27;96495.16;5010637;28;20053;-76
2022/07/22 09:57:43;;;;;;;9.80;6.18;;;;;;;29.42;40.08;96494.81;5011338;28;20049;-75
2022/07/22 10:00:11;;;;;;;10.20;6.40;;;;;;;29.44;37.75;96486.75;5010771;28;20486;-76
2022/07/22 10:02:45;;;;;;;8.50;6.22;;;;;;;29.48;40.09;96481.84;5011212;28;20042;-75
2022/07/22 10:05:13;;;;;;;9.57;6.22;;;;;;;29.55;39.06;96476.88;5010666;28;20059;-77
2022/07/22 10:07:43;;;;;;;7.00;6.07;;;;;;;29.61;38.96;96479.94;5011032;28;20044;-79
2022/07/22 10:10:11;;;;;;;9.32;6.85;;;;;;;29.93;41.08;96481.09;5010544;28;20069;-79
2022/07/22 10:12:39;;;;;;;8.10;6.10;;;;;;;29.84;36.71;96479.72;5010854;28;20509;-78
2022/07/22 10:15:08;;;;;;;7.78;6.05;;;;;;;29.74;39.71;96477.97;5010649;28;20069;-78
2022/07/22 10:17:36;;;;;;;8.57;6.10;;;;;;;29.73;37.52;96476.41;5011182;28;20076;-77
2022/07/22 10:20:04;;;;;;;7.97;6.25;;;;;;;29.73;37.94;96470.78;5010356;28;20076;-79
2022/07/22 10:22:49;;;;;;;8.07;6.50;;;;;;;29.79;35.79;96471.81;5010544;28;20038;-78
2022/07/22 10:25:18;;;;;;;8.23;5.95;;;;;;;29.82;37.38;96472.97;5010272;28;20133;-76
2022/07/22 10:27:45;;;;;;;7.82;6.25;;;;;;;29.81;36.47;96466.56;5010489;28;20124;-78
2022/07/22 10:30:14;;;;;;;10.05;6.28;;;;;;;29.90;36.59;96457.50;5010209;28;20045;-78
2022/07/22 10:32:41;;;;;;;6.45;5.57;;;;;;;30.02;37.04;96461.59;5010552;28;20655;-80
2022/07/22 10:35:25;;;;;;;6.30;5.50;;;;;;;30.19;36.88;96465.97;5010121;28;20049;-78
2022/07/22 10:37:59;;;;;;;9.07;6.45;;;;;;;30.21;36.47;96462.69;5010189;28;20046;-77
2022/07/22 10:40:28;;;;;;;6.18;5.40;;;;;;;30.31;35.60;96451.16;5010022;28;20405;-78
2022/07/22 10:43:09;;;;;;;7.95;5.10;;;;;;;30.16;36.18;96449.97;5010419;28;20413;-78
2022/07/22 10:45:40;;;;;;;8.15;6.50;;;;;;;29.98;36.94;96456.09;5010390;28;20034;-79
2022/07/22 10:48:09;;;;;;;8.27;5.82;;;;;;;30.00;38.71;96455.63;5009953;28;20054;-78
2022/07/22 10:50:54;;;;;;;7.28;6.25;;;;;;;30.13;36.23;96445.28;5010436;28;20060;-83
2022/07/22 10:53:25;;;;;;;8.15;5.88;;;;;;;30.27;36.50;96444.84;5009976;28;20053;-80
2022/07/22 10:56:12;;;;;;;8.70;6.75;;;;;;;30.14;35.75;96446.84;5010611;28;20049;-79
2022/07/22 10:58:58;;;;;;;8.20;5.88;;;;;;;30.19;37.15;96443.50;5010546;28;20041;-78
2022/07/22 11:01:28;;;;;;;7.60;5.50;;;;;;;30.26;35.79;96443.28;5009368;28;20065;-78
2022/07/22 11:03:55;;;;;;;9.52;6.13;;;;;;;30.30;34.81;96437.56;5010268;28;20050;-77
2022/07/22 11:06:28;;;;;;;8.60;5.72;;;;;;;30.48;36.59;96437.00;5009678;28;20046;-78
2022/07/22 11:08:58;;;;;;;7.25;5.75;;;;;;;30.23;35.98;96434.97;5009968;28;20046;-78
2022/07/22 11:11:38;;;;;;;6.60;5.60;;;;;;;30.30;33.65;96438.34;5009508;28;20049;-77
2022/07/22 11:14:11;;;;;;;9.02;6.20;;;;;;;30.17;35.69;96434.69;5009279;28;20077;-77
2022/07/22 11:16:37;;;;;;;8.05;5.88;;;;;;;30.15;34.99;96429.53;5010076;28;20049;-80
2022/07/22 11:19:05;;;;;;;8.20;5.57;;;;;;;29.39;36.62;96429.16;5009680;28;20394;-78
2022/07/22 11:21:34;;;;;;;9.13;6.63;;;;;;;29.61;37.42;96429.44;5009824;28;20057;-78
2022/07/22 11:24:03;;;;;;;7.45;6.13;;;;;;;29.80;37.17;96434.09;5009947;28;20050;-77
2022/07/22 11:26:36;;;;;;;8.85;6.85;;;;;;;29.79;35.58;96420.53;5009639;28;20050;-78